Latest Weather Observations for Kuitpo

IDS60901

Issued at 5:11 pm CDT Saturday 25 February 2017 (issued every 10 minutes, with the page automatically refreshed every 10 minutes)

About weather observations | Map of Adelaide area stations | Latest observations for Adelaide area | Other Formats
Station Details ID: 023887 Name: KUITPO FOREST RESERVE Lat: -35.17 Lon: 138.68 Height: 365.0 m
Data from the previous 72 hours. | See also: Recent months at Kuitpo
Date/Time
CDT
Temp
°C
App
Temp
°C
Dew
Point
°C
Rel
Hum
%
Delta-T
°C
Wind Press
QNH
hPa
Press
MSL
hPa
Rain since
9am
mm
Dir  Spd
km/h
Gust
km/h
Spd
kts
Gust
kts
25/05:00pm 17.1 13.7 9.0 59 4.3 SSE 17 28 9 15 1021.5 1020.2 0.0
25/04:30pm 17.2 13.5 9.4 60 4.1 SSE 19 39 10 21 1021.7 1020.4 0.0
25/04:00pm 17.5 13.8 9.4 59 4.3 SSE 19 33 10 18 1022.0 1020.7 0.0
25/03:30pm 17.8 14.6 9.9 60 4.2 SSE 17 30 9 16 1022.3 1021.0 0.0
25/03:00pm 18.1 14.5 9.7 58 4.5 SSE 19 33 10 18 1022.5 1021.2 0.0
25/02:30pm 17.1 12.4 9.3 60 4.1 ESE 24 35 13 19 1023.0 1021.7 0.0
25/02:00pm 17.6 13.6 9.0 57 4.5 ESE 20 35 11 19 1023.1 1021.8 0.0
25/01:30pm 17.6 13.5 8.7 56 4.7 SE 20 35 11 19 1023.5 1022.2 0.0
25/01:00pm 17.8 14.1 9.4 58 4.5 ESE 19 32 10 17 1023.5 1022.2 0.0
25/12:30pm 17.7 14.0 9.3 58 4.5 ESE 19 30 10 16 1023.8 1022.5 0.0
25/12:00pm 17.3 13.7 10.0 62 3.9 ESE 19 35 10 19 1024.2 1023.0 0.0
25/11:30am 15.9 12.1 8.9 63 3.6 SE 19 39 10 21 1024.6 1023.4 0.0
25/11:00am 14.9 9.6 8.6 66 3.3 ESE 26 37 14 20 1024.9 1023.6 0.0
25/10:30am 14.5 10.0 8.7 68 3.0 E 22 44 12 24 1024.5 1023.3 0.0
25/10:00am 14.3 8.7 8.7 69 2.9 E 28 39 15 21 1025.0 1023.7 0.0
25/09:30am 14.4 9.4 9.6 73 2.5 E 26 43 14 23 1024.6 1023.4 0.0
25/09:00am 13.4 8.0 9.5 77 2.0 ESE 28 44 15 24 1024.5 1023.3 0.0
25/08:30am 12.9 7.8 9.2 78 1.9 ESE 26 43 14 23 1024.3 1023.1 0.0
25/08:00am 12.2 7.0 9.0 81 1.6 E 26 35 14 19 1024.0 1022.7 0.0
25/07:30am 11.6 6.0 8.8 83 1.4 ESE 28 43 15 23 1023.8 1022.5 0.0
25/07:00am 11.2 6.1 9.1 87 1.1 ESE 26 37 14 20 1023.9 1022.6 0.0
25/06:30am 11.3 6.2 9.2 87 1.1 ESE 26 39 14 21 1023.6 1022.3 0.0
25/06:00am 11.4 6.3 9.3 87 1.1 ESE 26 39 14 21 1023.8 1022.5 0.0
25/05:30am 11.6 6.6 9.7 88 1.0 ESE 26 41 14 22 1023.5 1022.2 0.0
25/05:00am 12.0 7.7 10.6 91 0.7 ESE 24 35 13 19 1023.5 1022.2 0.0
25/04:30am 12.6 8.3 10.8 89 1.0 ESE 24 35 13 19 1023.5 1022.2 0.0
25/04:00am 12.7 8.4 10.6 87 1.1 ESE 24 35 13 19 1023.5 1022.2 0.0
25/03:30am 13.0 8.7 10.9 87 1.1 ESE 24 39 13 21 1023.6 1022.3 0.0
25/03:00am 12.9 8.6 10.6 86 1.2 SE 24 37 13 20 1023.8 1022.5 0.0
25/02:30am 12.8 8.1 10.5 86 1.2 ESE 26 39 14 21 1023.9 1022.6 0.0
25/02:00am 12.7 9.1 10.4 86 1.2 SE 20 30 11 16 1024.3 1023.1 0.0
25/01:30am 12.5 8.9 10.4 87 1.1 SE 20 35 11 19 1024.5 1023.3 0.0
25/01:00am 12.4 8.7 10.1 86 1.2 SE 20 32 11 17 1024.6 1023.4 0.0
25/12:30am 12.5 8.8 10.2 86 1.2 SE 20 33 11 18 1025.0 1023.7 0.0
25/12:00am 12.4 8.7 10.0 85 1.2 SE 20 30 11 16 1024.9 1023.6 0.0
 
Date/Time
CDT
Temp
°C
App
Temp
°C
Dew
Point
°C
Rel
Hum
%
Delta-T
°C
Wind Press
QNH
hPa
Press
MSL
hPa
Rain since
9am
mm
Dir  Spd
km/h
Gust
km/h
Spd
kts
Gust
kts
24/11:30pm 12.5 8.7 9.7 83 1.4 SE 20 32 11 17 1024.9 1023.6 0.0
24/11:00pm 12.8 9.0 9.8 82 1.6 SE 20 30 11 16 1025.2 1023.9 0.0
24/10:30pm 13.0 9.4 9.8 81 1.7 SE 19 35 10 19 1025.1 1023.8 0.0
24/10:00pm 13.3 9.6 10.1 81 1.7 SE 20 32 11 17 1025.3 1024.0 0.0
24/09:30pm 13.3 9.8 10.1 81 1.7 SE 19 32 10 17 1025.4 1024.1 0.0
24/09:00pm 13.6 10.4 10.0 79 1.9 SE 17 32 9 17 1025.3 1024.0 0.0
24/08:30pm 13.7 10.7 9.4 75 2.2 SSE 15 24 8 13 1025.2 1023.9 0.0
24/08:00pm 14.2 10.4 9.2 72 2.6 SE 19 32 10 17 1024.9 1023.6 0.0
24/07:30pm 14.4 10.6 9.2 71 2.7 SSE 19 37 10 20 1024.7 1023.5 0.0
24/07:00pm 14.8 11.7 8.7 67 3.2 SSE 15 28 8 15 1024.6 1023.4 0.0
24/06:30pm 14.8 10.9 8.7 67 3.1 SSE 19 32 10 17 1024.5 1023.3 0.0
24/06:00pm 15.2 11.2 9.1 67 3.2 SSE 20 39 11 21 1024.5 1023.3 0.0
24/05:30pm 15.8 12.0 9.0 64 3.5 SE 19 32 10 17 1024.5 1023.3 0.0
24/05:00pm 15.6 12.2 9.3 66 3.3 SE 17 28 9 15 1024.4 1023.2 0.0
24/04:30pm 15.8 13.1 10.3 70 2.9 SSE 15 30 8 16 1024.5 1023.3 0.0
24/04:00pm 16.5 13.6 9.7 64 3.6 S 15 30 8 16 1024.5 1023.3 0.0
24/03:30pm 16.9 13.3 9.8 63 3.8 SSE 19 30 10 16 1024.7 1023.5 0.0
24/03:00pm 16.9 14.0 9.6 62 3.9 SSE 15 26 8 14 1025.0 1023.7 0.0
24/02:30pm 17.4 14.2 9.8 61 4.1 SSE 17 30 9 16 1025.2 1023.9 0.0
24/02:00pm 18.1 14.3 9.2 56 4.7 SE 19 32 10 17 1025.1 1023.8 0.0
24/01:30pm 17.7 14.4 9.6 59 4.3 SSE 17 28 9 15 1025.2 1023.9 0.0
24/01:00pm 17.4 14.1 9.6 60 4.2 SE 17 30 9 16 1025.4 1024.1 0.0
24/12:30pm 17.6 14.2 9.2 58 4.4 SE 17 32 9 17 1025.7 1024.4 0.0
24/12:00pm 16.9 13.8 8.8 59 4.2 S 15 30 8 16 1025.8 1024.5 0.0
24/11:30am 16.4 13.4 9.1 62 3.8 SSE 15 24 8 13 1026.1 1024.8 0.0
24/11:00am 16.8 13.5 9.5 62 3.9 ESE 17 28 9 15 1026.0 1024.7 0.0
24/10:30am 15.4 11.6 8.9 65 3.4 SE 19 30 10 16 1026.1 1024.8 0.0
24/10:00am 16.0 13.6 9.9 67 3.3 SSE 13 26 7 14 1026.0 1024.7 0.0
24/09:30am 15.4 12.2 10.0 70 2.9 ESE 17 28 9 15 1025.9 1024.6 0.0
24/09:00am 13.8 11.2 9.3 74 2.3 SE 13 20 7 11 1025.8 1024.5 0.0
24/08:30am 13.1 10.5 9.4 78 1.9 SE 13 19 7 10 1025.4 1024.1 0.0
24/08:00am 12.4 10.2 9.2 81 1.6 SE 11 19 6 10 1025.2 1023.9 0.0
24/07:30am 12.1 9.4 8.9 81 1.6 SE 13 17 7 9 1024.7 1023.5 0.0
24/07:00am 11.6 8.9 8.8 83 1.4 SE 13 19 7 10 1024.4 1023.2 0.0
24/06:30am 11.3 8.5 8.7 84 1.3 SE 13 17 7 9 1024.1 1022.8 0.0
24/06:00am 11.1 8.3 8.7 85 1.2 SE 13 20 7 11 1023.7 1022.4 0.0
24/05:30am 11.2 8.4 8.6 84 1.3 SE 13 20 7 11 1023.5 1022.2 0.0
24/05:00am 11.2 8.1 8.8 85 1.2 SE 15 20 8 11 1023.3 1022.0 0.0
24/04:30am 11.2 8.1 8.9 86 1.2 SE 15 19 8 10 1023.2 1021.9 0.0
24/04:00am 11.4 8.3 9.0 85 1.2 SE 15 20 8 11 1023.3 1022.0 0.0
24/03:30am 11.6 8.5 9.0 84 1.3 SE 15 20 8 11 1023.2 1021.9 0.0
24/03:00am 11.7 8.7 9.3 85 1.2 SE 15 20 8 11 1023.2 1021.9 0.0
24/02:30am 11.7 9.1 9.3 85 1.2 SE 13 20 7 11 1023.2 1021.9 0.0
24/02:00am 12.1 9.2 9.5 84 1.3 SE 15 22 8 12 1023.4 1022.1 0.0
24/01:30am 12.3 9.8 9.7 84 1.3 SE 13 20 7 11 1023.4 1022.1 0.0
24/01:00am 12.5 10.1 10.0 85 1.3 SE 13 19 7 10 1023.6 1022.3 0.0
24/12:30am 12.5 10.2 10.4 87 1.1 SSE 13 19 7 10 1023.8 1022.5 0.0
24/12:00am 12.7 10.5 10.9 89 1.0 SSE 13 19 7 10 1023.7 1022.4 0.0
 
Date/Time
CDT
Temp
°C
App
Temp
°C
Dew
Point
°C
Rel
Hum
%
Delta-T
°C
Wind Press
QNH
hPa
Press
MSL
hPa
Rain since
9am
mm
Dir  Spd
km/h
Gust
km/h
Spd
kts
Gust
kts
23/11:30pm 12.8 10.7 11.0 89 1.0 SSE 13 19 7 10 1023.6 1022.3 0.0
23/11:00pm 13.0 10.9 11.2 89 1.0 SSE 13 17 7 9 1023.6 1022.3 0.0
23/10:30pm 13.2 11.1 11.3 88 1.0 SSE 13 19 7 10 1023.6 1022.3 0.0
23/10:00pm 13.5 11.4 11.2 86 1.2 SSE 13 22 7 12 1023.3 1022.0 0.0
23/09:30pm 14.0 11.9 11.2 83 1.5 SSE 13 20 7 11 1023.2 1021.9 0.0
23/09:00pm 14.7 12.3 11.3 80 1.8 SSE 15 24 8 13 1022.8 1021.5 0.0
23/08:30pm 15.1 13.5 11.5 79 2.0 SSE 11 22 6 12 1022.3 1021.0 0.0
23/08:00pm 15.5 13.8 11.3 76 2.3 S 11 24 6 13 1021.8 1020.6 0.0
23/07:30pm 16.1 13.7 11.3 73 2.6 S 15 28 8 15 1021.5 1020.2 0.0
23/07:00pm 17.8 15.8 11.4 66 3.5 S 13 22 7 12 1021.1 1019.8 0.0
23/06:30pm 19.4 17.6 12.2 63 4.1 S 13 24 7 13 1020.8 1019.5 0.0
23/06:00pm 19.7 18.1 12.7 64 4.0 SW 13 20 7 11 1020.6 1019.3 0.0
23/05:30pm 19.6 17.4 12.1 62 4.2 SSW 15 20 8 11 1020.5 1019.2 0.0
23/05:00pm 18.7 16.9 12.2 66 3.7 S 13 20 7 11 1020.3 1019.0 0.0
23/04:30pm 19.6 18.9 13.3 67 3.6 S 9 17 5 9 1020.2 1018.9 0.0
23/04:00pm 21.2 19.3 12.9 59 4.8 WSW 15 26 8 14 1020.2 1018.9 0.0
23/03:30pm 20.8 18.5 13.0 61 4.5 WSW 17 24 9 13 1020.2 1018.9 0.0
23/03:00pm 20.3 18.2 13.5 65 4.0 WSW 17 26 9 14 1020.2 1018.9 0.0
23/02:30pm 20.2 18.1 13.6 66 3.8 WSW 17 26 9 14 1020.3 1019.0 0.0
23/02:00pm 20.3 17.9 12.5 61 4.5 WSW 17 24 9 13 1020.2 1018.9 0.0
23/01:30pm 20.2 18.4 12.2 60 4.5 WSW 13 20 7 11 1020.1 1018.8 0.0
23/01:00pm 18.8 17.7 12.1 65 3.8 WSW 9 13 5 7 1020.3 1019.0 0.0
23/12:30pm 18.9 17.6 12.6 67 3.6 W 11 19 6 10 1020.3 1019.0 0.0
23/12:00pm 19.2 18.2 12.2 64 4.0 WNW 9 19 5 10 1020.6 1019.3 0.0
23/11:30am 18.3 16.6 12.5 69 3.3 W 13 20 7 11 1020.7 1019.4 0.0
23/11:00am 16.9 16.4 12.8 77 2.3 W 7 11 4 6 1020.8 1019.5 0.0
23/10:30am 16.0 15.3 13.1 83 1.6 WSW 9 15 5 8 1020.6 1019.3 0.0
23/10:00am 16.6 16.0 12.4 76 2.4 SW 7 13 4 7 1020.1 1018.8 0.0
23/09:30am 14.8 13.5 12.5 86 1.3 SW 11 19 6 10 1019.9 1018.6 0.0
23/09:00am 14.0 12.4 12.7 92 0.7 SSW 13 19 7 10 1019.5 1018.2 0.0
23/08:30am 14.4 13.2 12.8 90 0.9 SW 11 15 6 8 1018.9 1017.6 0.0
23/08:00am 14.0 12.8 12.7 92 0.7 SW 11 17 6 9 1018.4 1017.1 0.0
23/07:30am 13.8 11.7 12.5 92 0.7 SW 15 24 8 13 1017.8 1016.5 0.0
23/07:00am 14.0 12.3 12.4 90 0.9 SW 13 19 7 10 1017.4 1016.1 0.0
23/06:30am 14.3 12.2 12.5 89 1.0 SW 15 26 8 14 1017.1 1015.8 0.0
23/06:00am 14.5 12.1 12.5 88 1.1 SW 17 26 9 14 1016.6 1015.2 0.0
23/05:30am 14.6 11.6 12.6 88 1.1 WSW 20 35 11 19 1015.9 1014.6 0.0
23/05:00am 14.7 11.7 12.7 88 1.1 WSW 20 35 11 19 1015.6 1014.3 0.0
23/04:30am 14.7 11.8 12.9 89 1.0 WSW 20 33 11 18 1015.7 1014.4 0.0
23/04:00am 15.1 12.2 12.8 86 1.3 W 20 33 11 18 1015.6 1014.3 0.0
23/03:30am 15.3 12.3 12.6 84 1.5 W 20 33 11 18 1015.6 1014.3 0.0
23/03:00am 15.3 12.4 12.8 85 1.4 W 20 32 11 17 1015.7 1014.4 0.0
23/02:30am 15.2 12.4 12.5 84 1.5 W 19 30 10 16 1015.5 1014.2 0.0
23/02:00am 15.5 12.5 12.6 83 1.6 W 20 32 11 17 1015.6 1014.3 0.0
23/01:30am 15.5 12.6 12.3 81 1.8 W 19 32 10 17 1015.7 1014.4 0.0
23/01:00am 15.5 12.4 12.3 81 1.8 W 20 32 11 17 1015.6 1014.3 0.0
23/12:30am 15.9 12.5 12.5 80 1.9 W 22 35 12 19 1015.6 1014.3 0.0
23/12:00am 16.0 11.7 13.1 83 1.6 WSW 28 41 15 22 1015.2 1013.9 0.0
 
Date/Time
CDT
Temp
°C
App
Temp
°C
Dew
Point
°C
Rel
Hum
%
Delta-T
°C
Wind Press
QNH
hPa
Press
MSL
hPa
Rain since
9am
mm
Dir  Spd
km/h
Gust
km/h
Spd
kts
Gust
kts
22/11:30pm 16.2 12.7 13.3 83 1.6 W 24 39 13 21 1015.1 1013.8 0.0
22/11:00pm 16.1 12.8 12.7 80 1.9 W 22 39 12 21 1015.4 1014.1 0.0
22/10:30pm 16.6 13.5 12.2 75 2.5 W 20 28 11 15 1015.5 1014.2 0.0
22/10:00pm 16.7 13.5 11.8 73 2.7 WSW 20 35 11 19 1015.0 1013.7 0.0
22/09:30pm 17.1 13.9 12.0 72 2.8 WSW 20 35 11 19 1014.7 1013.4 0.0
22/09:00pm 17.6 14.6 12.1 70 3.1 WSW 19 33 10 18 1014.4 1013.0 0.0
22/08:30pm 17.8 14.8 12.0 69 3.2 W 19 33 10 18 1013.8 1012.4 0.0
22/08:00pm 18.3 15.7 12.1 67 3.5 W 17 28 9 15 1013.2 1011.9 0.0
22/07:30pm 18.5 14.3 11.1 62 4.1 W 24 39 13 21 1012.7 1011.4 0.0
22/07:00pm 19.5 14.6 11.3 59 4.6 WNW 28 46 15 25 1012.2 1010.9 0.0
22/06:30pm 20.2 16.4 11.1 56 5.1 W 22 39 12 21 1011.9 1010.5 0.0
22/06:06pm 19.9 14.3 8.9 49 5.9 WNW 28 52 15 28 1011.6 1010.2 0.0
22/06:00pm 21.0 16.5 8.6 45 6.6 W 22 39 12 21 1011.6 1010.2 0.0
22/05:30pm 20.6 14.4 9.5 49 6.0 WNW 32 54 17 29 1011.4 1010.0 0.0

Latest Capital City Observations: Canberra | Sydney | Melbourne | Brisbane | Adelaide | Perth | Hobart | Darwin

Other Formats:

Comma delimited format used in spreadsheet applications
http://www.bom.gov.au/fwo/IDS60901/IDS60901.94683.axf

JavaScript Object Notation format (JSON) in row-major order
http://www.bom.gov.au/fwo/IDS60901/IDS60901.94683.json